sensor_id;sensor_type;location;lat;lon;timestamp;P1;durP1;ratioP1;P2;durP2;ratioP2
14817;SDS011;7500;57.698;11.986;2023-09-18T00:00:59;7.00;;;3.60;;
14817;SDS011;7500;57.698;11.986;2023-09-18T00:03:26;4.63;;;3.93;;
14817;SDS011;7500;57.698;11.986;2023-09-18T00:05:52;4.07;;;3.67;;
14817;SDS011;7500;57.698;11.986;2023-09-18T00:08:21;4.60;;;3.77;;
14817;SDS011;7500;57.698;11.986;2023-09-18T00:10:48;4.63;;;3.53;;
14817;SDS011;7500;57.698;11.986;2023-09-18T00:13:16;4.50;;;4.10;;
14817;SDS011;7500;57.698;11.986;2023-09-18T00:15:43;4.67;;;3.80;;
14817;SDS011;7500;57.698;11.986;2023-09-18T00:18:12;3.73;;;3.43;;
14817;SDS011;7500;57.698;11.986;2023-09-18T00:20:39;5.00;;;3.80;;
14817;SDS011;7500;57.698;11.986;2023-09-18T00:23:07;4.47;;;3.60;;
14817;SDS011;7500;57.698;11.986;2023-09-18T00:25:36;4.30;;;3.70;;
14817;SDS011;7500;57.698;11.986;2023-09-18T00:28:03;3.60;;;3.30;;
14817;SDS011;7500;57.698;11.986;2023-09-18T00:30:30;3.90;;;3.50;;
14817;SDS011;7500;57.698;11.986;2023-09-18T00:32:57;5.47;;;3.47;;
14817;SDS011;7500;57.698;11.986;2023-09-18T00:35:24;4.20;;;3.43;;
14817;SDS011;7500;57.698;11.986;2023-09-18T00:37:51;4.60;;;3.57;;
14817;SDS011;7500;57.698;11.986;2023-09-18T00:40:18;4.03;;;3.53;;
14817;SDS011;7500;57.698;11.986;2023-09-18T00:42:46;5.47;;;3.43;;
14817;SDS011;7500;57.698;11.986;2023-09-18T00:45:13;3.47;;;3.20;;
14817;SDS011;7500;57.698;11.986;2023-09-18T00:47:40;4.10;;;3.37;;
14817;SDS011;7500;57.698;11.986;2023-09-18T00:50:08;4.30;;;2.93;;
14817;SDS011;7500;57.698;11.986;2023-09-18T00:52:38;3.97;;;3.00;;
14817;SDS011;7500;57.698;11.986;2023-09-18T00:55:05;3.43;;;3.13;;
14817;SDS011;7500;57.698;11.986;2023-09-18T00:57:34;4.00;;;3.30;;
14817;SDS011;7500;57.698;11.986;2023-09-18T01:00:03;3.70;;;3.40;;
14817;SDS011;7500;57.698;11.986;2023-09-18T01:02:31;3.10;;;2.80;;
14817;SDS011;7500;57.698;11.986;2023-09-18T01:04:58;3.33;;;3.03;;
14817;SDS011;7500;57.698;11.986;2023-09-18T01:07:25;4.70;;;3.23;;
14817;SDS011;7500;57.698;11.986;2023-09-18T01:09:53;3.50;;;3.20;;
14817;SDS011;7500;57.698;11.986;2023-09-18T01:12:23;3.30;;;3.00;;
14817;SDS011;7500;57.698;11.986;2023-09-18T01:14:57;3.13;;;2.93;;
14817;SDS011;7500;57.698;11.986;2023-09-18T01:17:30;3.40;;;3.10;;
14817;SDS011;7500;57.698;11.986;2023-09-18T01:19:57;4.00;;;3.10;;
14817;SDS011;7500;57.698;11.986;2023-09-18T01:22:24;4.10;;;3.10;;
14817;SDS011;7500;57.698;11.986;2023-09-18T01:24:52;4.47;;;3.47;;
14817;SDS011;7500;57.698;11.986;2023-09-18T01:27:19;3.43;;;3.00;;
14817;SDS011;7500;57.698;11.986;2023-09-18T01:29:46;4.17;;;3.30;;
14817;SDS011;7500;57.698;11.986;2023-09-18T01:32:14;3.33;;;3.03;;
14817;SDS011;7500;57.698;11.986;2023-09-18T01:34:42;4.23;;;2.87;;
14817;SDS011;7500;57.698;11.986;2023-09-18T01:37:14;3.10;;;2.80;;
14817;SDS011;7500;57.698;11.986;2023-09-18T01:39:42;4.00;;;3.10;;
14817;SDS011;7500;57.698;11.986;2023-09-18T01:42:13;3.13;;;2.90;;
14817;SDS011;7500;57.698;11.986;2023-09-18T01:44:40;3.43;;;2.57;;
14817;SDS011;7500;57.698;11.986;2023-09-18T01:47:08;3.10;;;2.90;;
14817;SDS011;7500;57.698;11.986;2023-09-18T01:49:39;4.33;;;2.90;;
14817;SDS011;7500;57.698;11.986;2023-09-18T01:52:07;3.20;;;2.90;;
14817;SDS011;7500;57.698;11.986;2023-09-18T01:54:35;3.07;;;2.77;;
14817;SDS011;7500;57.698;11.986;2023-09-18T01:57:03;3.60;;;2.73;;
14817;SDS011;7500;57.698;11.986;2023-09-18T01:59:33;3.50;;;2.67;;
14817;SDS011;7500;57.698;11.986;2023-09-18T02:02:01;3.30;;;2.97;;
14817;SDS011;7500;57.698;11.986;2023-09-18T02:04:31;3.67;;;2.57;;
14817;SDS011;7500;57.698;11.986;2023-09-18T02:06:59;3.07;;;2.83;;
14817;SDS011;7500;57.698;11.986;2023-09-18T02:09:26;4.37;;;2.80;;
14817;SDS011;7500;57.698;11.986;2023-09-18T02:11:53;3.13;;;2.70;;
14817;SDS011;7500;57.698;11.986;2023-09-18T02:14:20;3.30;;;2.97;;
14817;SDS011;7500;57.698;11.986;2023-09-18T02:16:48;3.90;;;3.00;;
14817;SDS011;7500;57.698;11.986;2023-09-18T02:19:16;3.33;;;2.90;;
14817;SDS011;7500;57.698;11.986;2023-09-18T02:21:45;2.90;;;2.70;;
14817;SDS011;7500;57.698;11.986;2023-09-18T02:24:12;5.20;;;3.00;;
14817;SDS011;7500;57.698;11.986;2023-09-18T02:26:39;3.30;;;3.00;;
14817;SDS011;7500;57.698;11.986;2023-09-18T02:29:07;3.97;;;3.10;;
14817;SDS011;7500;57.698;11.986;2023-09-18T02:31:36;6.37;;;3.07;;
14817;SDS011;7500;57.698;11.986;2023-09-18T02:34:05;3.03;;;2.70;;
14817;SDS011;7500;57.698;11.986;2023-09-18T02:36:32;3.87;;;2.97;;
14817;SDS011;7500;57.698;11.986;2023-09-18T02:38:59;4.63;;;2.97;;
14817;SDS011;7500;57.698;11.986;2023-09-18T02:41:26;5.50;;;3.20;;
14817;SDS011;7500;57.698;11.986;2023-09-18T02:43:53;4.07;;;3.03;;
14817;SDS011;7500;57.698;11.986;2023-09-18T02:46:20;5.33;;;2.80;;
14817;SDS011;7500;57.698;11.986;2023-09-18T02:48:47;4.27;;;3.20;;
14817;SDS011;7500;57.698;11.986;2023-09-18T02:51:15;3.47;;;2.83;;
14817;SDS011;7500;57.698;11.986;2023-09-18T02:53:42;3.03;;;2.73;;
14817;SDS011;7500;57.698;11.986;2023-09-18T02:56:09;3.63;;;2.90;;
14817;SDS011;7500;57.698;11.986;2023-09-18T02:58:36;3.53;;;2.53;;
14817;SDS011;7500;57.698;11.986;2023-09-18T03:01:03;3.43;;;2.67;;
14817;SDS011;7500;57.698;11.986;2023-09-18T03:03:30;3.77;;;2.97;;
14817;SDS011;7500;57.698;11.986;2023-09-18T03:06:00;2.90;;;2.63;;
14817;SDS011;7500;57.698;11.986;2023-09-18T03:08:29;3.80;;;2.73;;
14817;SDS011;7500;57.698;11.986;2023-09-18T03:10:57;4.90;;;2.77;;
14817;SDS011;7500;57.698;11.986;2023-09-18T03:13:25;3.40;;;2.70;;
14817;SDS011;7500;57.698;11.986;2023-09-18T03:15:53;3.30;;;2.63;;
14817;SDS011;7500;57.698;11.986;2023-09-18T03:18:20;3.47;;;2.80;;
14817;SDS011;7500;57.698;11.986;2023-09-18T03:20:47;3.67;;;2.97;;
14817;SDS011;7500;57.698;11.986;2023-09-18T03:23:14;3.73;;;2.90;;
14817;SDS011;7500;57.698;11.986;2023-09-18T03:25:42;3.20;;;2.53;;
14817;SDS011;7500;57.698;11.986;2023-09-18T03:28:09;2.83;;;2.53;;
14817;SDS011;7500;57.698;11.986;2023-09-18T03:30:36;2.90;;;2.60;;
14817;SDS011;7500;57.698;11.986;2023-09-18T03:33:03;2.70;;;2.47;;
14817;SDS011;7500;57.698;11.986;2023-09-18T03:35:31;2.97;;;2.63;;
14817;SDS011;7500;57.698;11.986;2023-09-18T03:37:58;3.33;;;2.73;;
14817;SDS011;7500;57.698;11.986;2023-09-18T03:40:25;3.13;;;2.40;;
14817;SDS011;7500;57.698;11.986;2023-09-18T03:42:53;4.13;;;2.93;;
14817;SDS011;7500;57.698;11.986;2023-09-18T03:45:20;4.30;;;2.83;;
14817;SDS011;7500;57.698;11.986;2023-09-18T03:47:47;4.83;;;2.67;;
14817;SDS011;7500;57.698;11.986;2023-09-18T03:50:15;5.20;;;2.60;;
14817;SDS011;7500;57.698;11.986;2023-09-18T03:52:42;2.83;;;2.47;;
14817;SDS011;7500;57.698;11.986;2023-09-18T03:55:09;3.37;;;2.67;;
14817;SDS011;7500;57.698;11.986;2023-09-18T03:57:36;3.03;;;2.80;;
14817;SDS011;7500;57.698;11.986;2023-09-18T04:00:04;4.90;;;2.80;;
14817;SDS011;7500;57.698;11.986;2023-09-18T04:02:32;3.10;;;2.80;;
14817;SDS011;7500;57.698;11.986;2023-09-18T04:05:00;4.23;;;2.83;;
14817;SDS011;7500;57.698;11.986;2023-09-18T04:07:27;4.87;;;2.60;;
14817;SDS011;7500;57.698;11.986;2023-09-18T04:09:54;2.80;;;2.50;;
14817;SDS011;7500;57.698;11.986;2023-09-18T04:12:21;4.03;;;2.50;;
14817;SDS011;7500;57.698;11.986;2023-09-18T04:14:48;3.23;;;2.90;;
14817;SDS011;7500;57.698;11.986;2023-09-18T04:17:17;3.37;;;2.93;;
14817;SDS011;7500;57.698;11.986;2023-09-18T04:19:46;2.90;;;2.70;;
14817;SDS011;7500;57.698;11.986;2023-09-18T04:22:13;2.47;;;2.27;;
14817;SDS011;7500;57.698;11.986;2023-09-18T04:24:40;2.90;;;2.60;;
14817;SDS011;7500;57.698;11.986;2023-09-18T04:27:07;4.47;;;2.60;;
14817;SDS011;7500;57.698;11.986;2023-09-18T04:29:34;4.50;;;2.70;;
14817;SDS011;7500;57.698;11.986;2023-09-18T04:32:01;3.40;;;2.63;;
14817;SDS011;7500;57.698;11.986;2023-09-18T04:34:30;3.13;;;2.60;;
14817;SDS011;7500;57.698;11.986;2023-09-18T04:37:00;7.60;;;2.60;;
14817;SDS011;7500;57.698;11.986;2023-09-18T04:39:28;3.97;;;2.87;;
14817;SDS011;7500;57.698;11.986;2023-09-18T04:41:59;3.30;;;2.43;;
14817;SDS011;7500;57.698;11.986;2023-09-18T04:44:29;6.07;;;2.60;;
14817;SDS011;7500;57.698;11.986;2023-09-18T04:46:56;2.83;;;2.40;;
14817;SDS011;7500;57.698;11.986;2023-09-18T04:49:23;4.30;;;2.70;;
14817;SDS011;7500;57.698;11.986;2023-09-18T04:51:52;3.20;;;2.43;;
14817;SDS011;7500;57.698;11.986;2023-09-18T04:54:19;3.57;;;2.47;;
14817;SDS011;7500;57.698;11.986;2023-09-18T04:56:46;2.83;;;2.40;;
14817;SDS011;7500;57.698;11.986;2023-09-18T04:59:13;4.83;;;2.70;;
14817;SDS011;7500;57.698;11.986;2023-09-18T05:01:39;3.83;;;2.87;;
14817;SDS011;7500;57.698;11.986;2023-09-18T05:04:07;2.50;;;2.30;;
14817;SDS011;7500;57.698;11.986;2023-09-18T05:06:34;4.03;;;2.63;;
14817;SDS011;7500;57.698;11.986;2023-09-18T05:09:02;3.43;;;2.60;;
14817;SDS011;7500;57.698;11.986;2023-09-18T05:11:30;3.53;;;2.57;;
14817;SDS011;7500;57.698;11.986;2023-09-18T05:13:57;3.20;;;2.60;;
14817;SDS011;7500;57.698;11.986;2023-09-18T05:16:24;6.27;;;2.80;;
14817;SDS011;7500;57.698;11.986;2023-09-18T05:18:51;3.10;;;2.60;;
14817;SDS011;7500;57.698;11.986;2023-09-18T05:21:18;4.07;;;2.40;;
14817;SDS011;7500;57.698;11.986;2023-09-18T05:23:49;4.63;;;2.50;;
14817;SDS011;7500;57.698;11.986;2023-09-18T05:26:18;6.40;;;4.03;;
14817;SDS011;7500;57.698;11.986;2023-09-18T05:28:45;6.50;;;3.10;;
14817;SDS011;7500;57.698;11.986;2023-09-18T05:31:12;2.77;;;2.47;;
14817;SDS011;7500;57.698;11.986;2023-09-18T05:33:40;3.03;;;2.50;;
14817;SDS011;7500;57.698;11.986;2023-09-18T05:36:07;3.90;;;2.50;;
14817;SDS011;7500;57.698;11.986;2023-09-18T05:38:34;3.80;;;2.90;;
14817;SDS011;7500;57.698;11.986;2023-09-18T05:41:01;4.63;;;2.47;;
14817;SDS011;7500;57.698;11.986;2023-09-18T05:43:31;4.53;;;2.40;;
14817;SDS011;7500;57.698;11.986;2023-09-18T05:45:58;5.50;;;2.53;;
14817;SDS011;7500;57.698;11.986;2023-09-18T05:48:25;3.47;;;2.40;;
14817;SDS011;7500;57.698;11.986;2023-09-18T05:50:52;3.17;;;2.50;;
14817;SDS011;7500;57.698;11.986;2023-09-18T05:53:21;3.73;;;2.53;;
14817;SDS011;7500;57.698;11.986;2023-09-18T05:55:49;3.77;;;2.70;;
14817;SDS011;7500;57.698;11.986;2023-09-18T05:58:16;2.60;;;2.40;;
14817;SDS011;7500;57.698;11.986;2023-09-18T06:00:46;11.77;;;7.70;;
14817;SDS011;7500;57.698;11.986;2023-09-18T06:03:14;3.50;;;2.43;;
14817;SDS011;7500;57.698;11.986;2023-09-18T06:05:44;3.20;;;2.60;;
14817;SDS011;7500;57.698;11.986;2023-09-18T06:08:10;3.80;;;2.60;;
14817;SDS011;7500;57.698;11.986;2023-09-18T06:10:37;3.43;;;2.50;;
14817;SDS011;7500;57.698;11.986;2023-09-18T06:13:04;4.00;;;2.63;;
14817;SDS011;7500;57.698;11.986;2023-09-18T06:15:31;3.63;;;2.40;;
14817;SDS011;7500;57.698;11.986;2023-09-18T06:18:00;3.40;;;2.33;;
14817;SDS011;7500;57.698;11.986;2023-09-18T06:20:28;5.90;;;2.50;;
14817;SDS011;7500;57.698;11.986;2023-09-18T06:22:55;3.40;;;2.67;;
14817;SDS011;7500;57.698;11.986;2023-09-18T06:25:22;4.63;;;2.63;;
14817;SDS011;7500;57.698;11.986;2023-09-18T06:27:49;2.60;;;2.20;;
14817;SDS011;7500;57.698;11.986;2023-09-18T06:30:16;3.90;;;2.70;;
14817;SDS011;7500;57.698;11.986;2023-09-18T06:32:43;5.13;;;2.53;;
14817;SDS011;7500;57.698;11.986;2023-09-18T06:35:11;2.73;;;2.10;;
14817;SDS011;7500;57.698;11.986;2023-09-18T06:37:38;4.27;;;2.57;;
14817;SDS011;7500;57.698;11.986;2023-09-18T06:40:06;5.03;;;2.50;;
14817;SDS011;7500;57.698;11.986;2023-09-18T06:42:34;3.23;;;2.37;;
14817;SDS011;7500;57.698;11.986;2023-09-18T06:45:01;3.17;;;2.50;;
14817;SDS011;7500;57.698;11.986;2023-09-18T06:47:31;2.63;;;2.40;;
14817;SDS011;7500;57.698;11.986;2023-09-18T06:49:58;2.80;;;2.30;;
14817;SDS011;7500;57.698;11.986;2023-09-18T06:52:27;6.03;;;2.40;;
14817;SDS011;7500;57.698;11.986;2023-09-18T06:54:54;4.43;;;2.30;;
14817;SDS011;7500;57.698;11.986;2023-09-18T06:57:23;3.23;;;2.17;;
14817;SDS011;7500;57.698;11.986;2023-09-18T06:59:49;4.67;;;2.40;;
14817;SDS011;7500;57.698;11.986;2023-09-18T07:02:16;5.40;;;2.40;;
14817;SDS011;7500;57.698;11.986;2023-09-18T07:04:43;2.63;;;2.20;;
14817;SDS011;7500;57.698;11.986;2023-09-18T07:07:11;3.73;;;2.27;;
14817;SDS011;7500;57.698;11.986;2023-09-18T07:09:40;4.50;;;2.67;;
14817;SDS011;7500;57.698;11.986;2023-09-18T07:12:08;2.50;;;2.27;;
14817;SDS011;7500;57.698;11.986;2023-09-18T07:14:35;6.77;;;2.40;;
14817;SDS011;7500;57.698;11.986;2023-09-18T07:17:03;6.23;;;2.40;;
14817;SDS011;7500;57.698;11.986;2023-09-18T07:19:30;2.30;;;1.90;;
14817;SDS011;7500;57.698;11.986;2023-09-18T07:21:57;2.50;;;2.27;;
14817;SDS011;7500;57.698;11.986;2023-09-18T07:24:24;2.77;;;2.13;;
14817;SDS011;7500;57.698;11.986;2023-09-18T07:26:52;3.73;;;2.17;;
14817;SDS011;7500;57.698;11.986;2023-09-18T07:29:20;2.83;;;2.20;;
14817;SDS011;7500;57.698;11.986;2023-09-18T07:31:47;4.83;;;2.10;;
14817;SDS011;7500;57.698;11.986;2023-09-18T07:34:14;4.50;;;2.13;;
14817;SDS011;7500;57.698;11.986;2023-09-18T07:36:43;3.17;;;2.37;;
14817;SDS011;7500;57.698;11.986;2023-09-18T07:39:10;4.00;;;2.10;;
14817;SDS011;7500;57.698;11.986;2023-09-18T07:41:37;3.47;;;2.33;;
14817;SDS011;7500;57.698;11.986;2023-09-18T07:44:06;2.73;;;1.93;;
14817;SDS011;7500;57.698;11.986;2023-09-18T07:46:33;3.73;;;2.30;;
14817;SDS011;7500;57.698;11.986;2023-09-18T07:49:00;3.27;;;2.30;;
14817;SDS011;7500;57.698;11.986;2023-09-18T07:51:27;2.93;;;2.00;;
14817;SDS011;7500;57.698;11.986;2023-09-18T07:53:55;3.63;;;2.70;;
14817;SDS011;7500;57.698;11.986;2023-09-18T07:56:22;2.67;;;2.20;;
14817;SDS011;7500;57.698;11.986;2023-09-18T07:58:49;3.23;;;2.53;;
14817;SDS011;7500;57.698;11.986;2023-09-18T08:01:17;7.47;;;2.97;;
14817;SDS011;7500;57.698;11.986;2023-09-18T08:03:47;2.90;;;2.57;;
14817;SDS011;7500;57.698;11.986;2023-09-18T08:06:14;2.50;;;2.20;;
14817;SDS011;7500;57.698;11.986;2023-09-18T08:08:44;3.03;;;2.33;;
14817;SDS011;7500;57.698;11.986;2023-09-18T08:11:11;3.47;;;2.40;;
14817;SDS011;7500;57.698;11.986;2023-09-18T08:13:38;2.87;;;2.33;;
14817;SDS011;7500;57.698;11.986;2023-09-18T08:16:05;6.30;;;2.20;;
14817;SDS011;7500;57.698;11.986;2023-09-18T08:18:35;4.07;;;2.30;;
14817;SDS011;7500;57.698;11.986;2023-09-18T08:21:06;6.40;;;2.30;;
14817;SDS011;7500;57.698;11.986;2023-09-18T08:23:34;7.97;;;2.30;;
14817;SDS011;7500;57.698;11.986;2023-09-18T08:26:01;4.63;;;2.33;;
14817;SDS011;7500;57.698;11.986;2023-09-18T08:28:29;5.00;;;1.83;;
14817;SDS011;7500;57.698;11.986;2023-09-18T08:30:55;4.00;;;2.30;;
14817;SDS011;7500;57.698;11.986;2023-09-18T08:33:23;3.07;;;2.23;;
14817;SDS011;7500;57.698;11.986;2023-09-18T08:35:52;3.70;;;2.27;;
14817;SDS011;7500;57.698;11.986;2023-09-18T08:38:19;2.63;;;2.17;;
14817;SDS011;7500;57.698;11.986;2023-09-18T08:40:46;4.37;;;3.00;;
14817;SDS011;7500;57.698;11.986;2023-09-18T08:43:14;6.60;;;2.47;;
14817;SDS011;7500;57.698;11.986;2023-09-18T08:45:44;5.97;;;2.57;;
14817;SDS011;7500;57.698;11.986;2023-09-18T08:48:16;4.73;;;2.37;;
14817;SDS011;7500;57.698;11.986;2023-09-18T08:50:43;4.60;;;2.33;;
14817;SDS011;7500;57.698;11.986;2023-09-18T08:53:13;4.13;;;2.67;;
14817;SDS011;7500;57.698;11.986;2023-09-18T08:55:40;3.13;;;2.50;;
14817;SDS011;7500;57.698;11.986;2023-09-18T08:58:07;3.33;;;2.60;;
14817;SDS011;7500;57.698;11.986;2023-09-18T09:00:36;4.43;;;3.37;;
14817;SDS011;7500;57.698;11.986;2023-09-18T09:03:03;2.97;;;2.53;;
14817;SDS011;7500;57.698;11.986;2023-09-18T09:05:31;3.77;;;2.90;;
14817;SDS011;7500;57.698;11.986;2023-09-18T09:07:58;4.47;;;2.80;;
14817;SDS011;7500;57.698;11.986;2023-09-18T09:10:28;5.43;;;3.07;;
14817;SDS011;7500;57.698;11.986;2023-09-18T09:12:55;3.03;;;2.73;;
14817;SDS011;7500;57.698;11.986;2023-09-18T09:15:25;3.27;;;2.80;;
14817;SDS011;7500;57.698;11.986;2023-09-18T09:18:02;5.57;;;2.83;;
14817;SDS011;7500;57.698;11.986;2023-09-18T09:20:30;4.77;;;3.30;;
14817;SDS011;7500;57.698;11.986;2023-09-18T09:22:59;4.53;;;3.33;;
14817;SDS011;7500;57.698;11.986;2023-09-18T09:25:28;3.93;;;3.10;;
14817;SDS011;7500;57.698;11.986;2023-09-18T09:27:58;7.40;;;3.53;;
14817;SDS011;7500;57.698;11.986;2023-09-18T09:30:26;4.77;;;3.63;;
14817;SDS011;7500;57.698;11.986;2023-09-18T09:32:55;4.47;;;3.70;;
14817;SDS011;7500;57.698;11.986;2023-09-18T09:35:23;3.90;;;3.50;;
14817;SDS011;7500;57.698;11.986;2023-09-18T09:37:54;5.20;;;3.70;;
14817;SDS011;7500;57.698;11.986;2023-09-18T09:40:26;3.90;;;3.60;;
14817;SDS011;7500;57.698;11.986;2023-09-18T09:42:57;3.53;;;3.23;;
14817;SDS011;7500;57.698;11.986;2023-09-18T09:45:27;4.43;;;3.67;;
14817;SDS011;7500;57.698;11.986;2023-09-18T09:48:00;5.17;;;3.93;;
14817;SDS011;7500;57.698;11.986;2023-09-18T09:50:27;5.07;;;3.60;;
14817;SDS011;7500;57.698;11.986;2023-09-18T09:52:54;4.33;;;3.83;;
14817;SDS011;7500;57.698;11.986;2023-09-18T09:55:22;6.40;;;4.13;;
14817;SDS011;7500;57.698;11.986;2023-09-18T09:57:53;5.57;;;4.10;;
14817;SDS011;7500;57.698;11.986;2023-09-18T10:00:22;4.80;;;3.80;;
14817;SDS011;7500;57.698;11.986;2023-09-18T10:02:56;5.43;;;4.17;;
14817;SDS011;7500;57.698;11.986;2023-09-18T10:05:25;5.27;;;3.97;;
14817;SDS011;7500;57.698;11.986;2023-09-18T10:07:56;4.80;;;4.00;;
14817;SDS011;7500;57.698;11.986;2023-09-18T10:10:26;4.83;;;4.33;;
14817;SDS011;7500;57.698;11.986;2023-09-18T10:12:59;5.13;;;4.10;;
14817;SDS011;7500;57.698;11.986;2023-09-18T10:15:29;5.53;;;4.17;;
14817;SDS011;7500;57.698;11.986;2023-09-18T10:18:03;4.80;;;4.30;;
14817;SDS011;7500;57.698;11.986;2023-09-18T10:20:36;4.40;;;4.00;;
14817;SDS011;7500;57.698;11.986;2023-09-18T10:23:09;4.87;;;4.40;;
14817;SDS011;7500;57.698;11.986;2023-09-18T10:25:48;7.73;;;4.67;;
14817;SDS011;7500;57.698;11.986;2023-09-18T10:28:18;5.40;;;4.63;;
14817;SDS011;7500;57.698;11.986;2023-09-18T10:30:46;4.57;;;4.17;;
14817;SDS011;7500;57.698;11.986;2023-09-18T10:33:15;5.30;;;4.80;;
14817;SDS011;7500;57.698;11.986;2023-09-18T10:35:42;4.90;;;4.50;;
14817;SDS011;7500;57.698;11.986;2023-09-18T10:38:13;5.07;;;4.40;;
14817;SDS011;7500;57.698;11.986;2023-09-18T10:40:41;5.73;;;4.37;;
14817;SDS011;7500;57.698;11.986;2023-09-18T10:43:10;5.27;;;4.87;;
14817;SDS011;7500;57.698;11.986;2023-09-18T10:45:39;5.37;;;4.70;;
14817;SDS011;7500;57.698;11.986;2023-09-18T10:48:07;5.97;;;4.77;;
14817;SDS011;7500;57.698;11.986;2023-09-18T10:50:35;5.53;;;5.03;;
14817;SDS011;7500;57.698;11.986;2023-09-18T10:53:04;7.50;;;4.67;;
14817;SDS011;7500;57.698;11.986;2023-09-18T10:55:31;5.13;;;4.57;;
14817;SDS011;7500;57.698;11.986;2023-09-18T10:57:59;5.37;;;4.63;;
14817;SDS011;7500;57.698;11.986;2023-09-18T11:00:28;5.27;;;4.77;;
14817;SDS011;7500;57.698;11.986;2023-09-18T11:03:10;7.27;;;5.03;;
14817;SDS011;7500;57.698;11.986;2023-09-18T11:05:39;8.40;;;4.70;;
14817;SDS011;7500;57.698;11.986;2023-09-18T11:08:25;6.83;;;4.70;;
14817;SDS011;7500;57.698;11.986;2023-09-18T11:11:00;5.83;;;5.23;;
14817;SDS011;7500;57.698;11.986;2023-09-18T11:13:34;5.53;;;4.53;;
14817;SDS011;7500;57.698;11.986;2023-09-18T11:16:13;5.60;;;4.90;;
14817;SDS011;7500;57.698;11.986;2023-09-18T11:18:42;6.63;;;4.60;;
14817;SDS011;7500;57.698;11.986;2023-09-18T11:21:14;7.87;;;5.10;;
14817;SDS011;7500;57.698;11.986;2023-09-18T11:23:43;5.27;;;4.77;;
14817;SDS011;7500;57.698;11.986;2023-09-18T11:26:10;9.33;;;5.43;;
14817;SDS011;7500;57.698;11.986;2023-09-18T11:28:37;6.07;;;5.40;;
14817;SDS011;7500;57.698;11.986;2023-09-18T11:31:05;7.53;;;5.77;;
14817;SDS011;7500;57.698;11.986;2023-09-18T11:33:35;6.87;;;4.93;;
14817;SDS011;7500;57.698;11.986;2023-09-18T11:36:05;5.60;;;5.10;;
14817;SDS011;7500;57.698;11.986;2023-09-18T11:38:50;7.07;;;4.87;;
14817;SDS011;7500;57.698;11.986;2023-09-18T11:41:24;8.30;;;5.50;;
14817;SDS011;7500;57.698;11.986;2023-09-18T11:43:52;6.13;;;5.53;;
14817;SDS011;7500;57.698;11.986;2023-09-18T11:47:01;5.90;;;5.27;;
14817;SDS011;7500;57.698;11.986;2023-09-18T11:49:29;6.40;;;5.20;;
14817;SDS011;7500;57.698;11.986;2023-09-18T11:51:59;6.90;;;5.60;;
14817;SDS011;7500;57.698;11.986;2023-09-18T11:54:27;5.70;;;5.10;;
14817;SDS011;7500;57.698;11.986;2023-09-18T11:56:54;7.30;;;5.63;;
14817;SDS011;7500;57.698;11.986;2023-09-18T11:59:33;6.10;;;5.50;;
14817;SDS011;7500;57.698;11.986;2023-09-18T12:02:01;6.50;;;5.63;;
14817;SDS011;7500;57.698;11.986;2023-09-18T12:04:31;9.63;;;6.10;;
14817;SDS011;7500;57.698;11.986;2023-09-18T12:07:00;6.37;;;5.77;;
14817;SDS011;7500;57.698;11.986;2023-09-18T12:09:28;6.50;;;5.80;;
14817;SDS011;7500;57.698;11.986;2023-09-18T12:11:56;8.40;;;6.20;;
14817;SDS011;7500;57.698;11.986;2023-09-18T12:14:23;6.80;;;5.90;;
14817;SDS011;7500;57.698;11.986;2023-09-18T12:16:50;6.93;;;6.00;;
14817;SDS011;7500;57.698;11.986;2023-09-18T12:19:17;7.67;;;6.70;;
14817;SDS011;7500;57.698;11.986;2023-09-18T12:21:45;7.47;;;6.10;;
14817;SDS011;7500;57.698;11.986;2023-09-18T12:24:17;6.80;;;6.10;;
14817;SDS011;7500;57.698;11.986;2023-09-18T12:26:47;8.20;;;7.40;;
14817;SDS011;7500;57.698;11.986;2023-09-18T12:29:14;8.60;;;7.80;;
14817;SDS011;7500;57.698;11.986;2023-09-18T12:31:41;7.73;;;6.93;;
14817;SDS011;7500;57.698;11.986;2023-09-18T12:34:13;8.17;;;6.67;;
14817;SDS011;7500;57.698;11.986;2023-09-18T12:36:41;9.20;;;6.57;;
14817;SDS011;7500;57.698;11.986;2023-09-18T12:39:09;6.90;;;6.20;;
14817;SDS011;7500;57.698;11.986;2023-09-18T12:41:38;7.53;;;6.83;;
14817;SDS011;7500;57.698;11.986;2023-09-18T12:44:05;9.63;;;6.80;;
14817;SDS011;7500;57.698;11.986;2023-09-18T12:46:34;8.70;;;7.10;;
14817;SDS011;7500;57.698;11.986;2023-09-18T12:49:14;7.83;;;7.13;;
14817;SDS011;7500;57.698;11.986;2023-09-18T12:51:42;7.87;;;7.13;;
14817;SDS011;7500;57.698;11.986;2023-09-18T12:54:11;8.80;;;7.03;;
14817;SDS011;7500;57.698;11.986;2023-09-18T12:56:43;8.10;;;7.00;;
14817;SDS011;7500;57.698;11.986;2023-09-18T12:59:10;9.20;;;7.17;;
14817;SDS011;7500;57.698;11.986;2023-09-18T13:01:38;7.83;;;7.13;;
14817;SDS011;7500;57.698;11.986;2023-09-18T13:04:07;8.20;;;7.40;;
14817;SDS011;7500;57.698;11.986;2023-09-18T13:06:38;8.40;;;7.57;;
14817;SDS011;7500;57.698;11.986;2023-09-18T13:09:15;9.23;;;7.40;;
14817;SDS011;7500;57.698;11.986;2023-09-18T13:11:56;10.43;;;7.83;;
14817;SDS011;7500;57.698;11.986;2023-09-18T13:14:23;7.87;;;7.17;;
14817;SDS011;7500;57.698;11.986;2023-09-18T13:16:50;8.73;;;7.20;;
14817;SDS011;7500;57.698;11.986;2023-09-18T13:19:17;8.17;;;7.33;;
14817;SDS011;7500;57.698;11.986;2023-09-18T13:21:48;9.33;;;7.37;;
14817;SDS011;7500;57.698;11.986;2023-09-18T13:24:28;8.77;;;7.53;;
14817;SDS011;7500;57.698;11.986;2023-09-18T13:26:57;8.33;;;7.63;;
14817;SDS011;7500;57.698;11.986;2023-09-18T13:29:26;8.40;;;7.70;;
14817;SDS011;7500;57.698;11.986;2023-09-18T13:31:53;8.97;;;8.07;;
14817;SDS011;7500;57.698;11.986;2023-09-18T13:34:20;8.53;;;7.73;;
14817;SDS011;7500;57.698;11.986;2023-09-18T13:36:48;8.93;;;8.00;;
14817;SDS011;7500;57.698;11.986;2023-09-18T13:39:15;9.80;;;8.43;;
14817;SDS011;7500;57.698;11.986;2023-09-18T13:41:43;12.00;;;8.03;;
14817;SDS011;7500;57.698;11.986;2023-09-18T13:44:12;11.00;;;8.13;;
14817;SDS011;7500;57.698;11.986;2023-09-18T13:46:39;8.77;;;7.80;;
14817;SDS011;7500;57.698;11.986;2023-09-18T13:49:06;9.53;;;8.03;;
14817;SDS011;7500;57.698;11.986;2023-09-18T13:51:33;10.53;;;8.53;;
14817;SDS011;7500;57.698;11.986;2023-09-18T13:54:00;9.03;;;7.60;;
14817;SDS011;7500;57.698;11.986;2023-09-18T13:56:29;10.80;;;8.00;;
14817;SDS011;7500;57.698;11.986;2023-09-18T13:58:56;9.40;;;8.50;;
14817;SDS011;7500;57.698;11.986;2023-09-18T14:01:24;9.80;;;8.80;;
14817;SDS011;7500;57.698;11.986;2023-09-18T14:03:53;10.00;;;8.30;;
14817;SDS011;7500;57.698;11.986;2023-09-18T14:06:20;9.13;;;8.23;;
14817;SDS011;7500;57.698;11.986;2023-09-18T14:08:47;10.13;;;8.60;;
14817;SDS011;7500;57.698;11.986;2023-09-18T14:11:14;10.67;;;9.13;;
14817;SDS011;7500;57.698;11.986;2023-09-18T14:13:41;9.50;;;8.53;;
14817;SDS011;7500;57.698;11.986;2023-09-18T14:16:08;10.93;;;8.30;;
14817;SDS011;7500;57.698;11.986;2023-09-18T14:18:37;8.73;;;7.93;;
14817;SDS011;7500;57.698;11.986;2023-09-18T14:21:04;9.57;;;8.67;;
14817;SDS011;7500;57.698;11.986;2023-09-18T14:23:31;10.17;;;8.53;;
14817;SDS011;7500;57.698;11.986;2023-09-18T14:25:59;9.00;;;8.20;;
14817;SDS011;7500;57.698;11.986;2023-09-18T14:28:27;9.00;;;7.83;;
14817;SDS011;7500;57.698;11.986;2023-09-18T14:30:53;11.90;;;8.70;;
14817;SDS011;7500;57.698;11.986;2023-09-18T14:33:21;10.73;;;8.10;;
14817;SDS011;7500;57.698;11.986;2023-09-18T14:35:49;9.23;;;8.33;;
14817;SDS011;7500;57.698;11.986;2023-09-18T14:38:16;8.77;;;7.87;;
14817;SDS011;7500;57.698;11.986;2023-09-18T14:40:43;9.13;;;8.23;;
14817;SDS011;7500;57.698;11.986;2023-09-18T14:43:10;9.17;;;7.70;;
14817;SDS011;7500;57.698;11.986;2023-09-18T14:45:37;9.13;;;8.17;;
14817;SDS011;7500;57.698;11.986;2023-09-18T14:48:05;10.30;;;8.87;;
14817;SDS011;7500;57.698;11.986;2023-09-18T14:50:32;8.43;;;7.73;;
14817;SDS011;7500;57.698;11.986;2023-09-18T14:53:01;10.53;;;9.20;;
14817;SDS011;7500;57.698;11.986;2023-09-18T14:55:29;9.03;;;7.93;;